Lookout, Wyoming
Current Conditions -  °F | °C
As of 4:53 PM on Friday 24 Oct 2014 (Local Time) from KLAR Reporting Station
Clear Clear  
Wind Chill: 68°   Ceiling: Unl
Heat Index: 68°   Visibility: 10mi
Dew Point: 20°   Wind: 15mph
Humidity: 16%   Direction: 250°WSW
Pressure: 30.25"   Gusts: NA
Location:  41.5395°N, 105.861°W
Report Text: KLAR 242253Z AUTO 25013KT 10SM CLR 20/M07 A3025 RMK AO2 SLP149 T02001067
Loading
Personal Weather Stations






























Interactive Weather Map
Tropical Storm Tracking
New forecast layout! Learn more

10-Day Weather Forecast

Advertisements
Track Severe Weather on mobile